createdAt,value
2018-03-24T00:00:38.319Z,5.00
2018-03-24T00:03:05.821Z,4.90
2018-03-24T00:05:33.331Z,4.90
2018-03-24T00:08:00.861Z,4.80
2018-03-24T00:10:29.127Z,4.80
2018-03-24T00:12:57.424Z,4.70
2018-03-24T00:15:25.678Z,4.70
2018-03-24T00:17:53.954Z,4.50
2018-03-24T00:20:22.220Z,4.40
2018-03-24T00:22:50.495Z,4.30
2018-03-24T00:25:19.500Z,4.20
2018-03-24T00:27:47.010Z,4.30
2018-03-24T00:30:14.514Z,4.20
2018-03-24T00:32:42.772Z,4.20
2018-03-24T00:35:10.263Z,4.20
2018-03-24T00:37:38.532Z,4.30
2018-03-24T00:40:06.787Z,4.30
2018-03-24T00:42:34.320Z,4.30
2018-03-24T00:45:03.064Z,4.40
2018-03-24T00:47:33.302Z,4.40
2018-03-24T00:50:00.797Z,4.40
2018-03-24T00:52:28.311Z,4.50
2018-03-24T00:54:56.556Z,4.50
2018-03-24T00:57:24.080Z,4.40
2018-03-24T00:59:51.580Z,4.40
2018-03-24T01:02:19.089Z,4.50
2018-03-24T01:04:46.582Z,4.50
2018-03-24T01:07:14.089Z,4.50
2018-03-24T01:09:42.341Z,4.50
2018-03-24T01:12:09.847Z,4.40
2018-03-24T01:14:37.336Z,4.40
2018-03-24T01:17:04.843Z,4.40
2018-03-24T01:19:33.124Z,4.40
2018-03-24T01:22:00.628Z,4.40
2018-03-24T01:24:28.128Z,4.40
2018-03-24T01:26:56.404Z,4.40
2018-03-24T01:29:24.698Z,4.40
2018-03-24T01:31:52.234Z,4.40
2018-03-24T01:34:20.519Z,4.40
2018-03-24T01:36:48.783Z,4.40
2018-03-24T01:39:16.287Z,4.40
2018-03-24T01:41:43.776Z,4.40
2018-03-24T01:44:11.289Z,4.40
2018-03-24T01:46:38.780Z,4.40
2018-03-24T01:49:06.287Z,4.40
2018-03-24T01:51:34.548Z,4.30
2018-03-24T01:54:02.052Z,4.30
2018-03-24T01:56:29.543Z,4.30
2018-03-24T01:58:57.048Z,4.20
2018-03-24T02:01:24.545Z,4.20
2018-03-24T02:03:52.044Z,4.20
2018-03-24T02:06:19.555Z,4.10
2018-03-24T02:08:47.036Z,4.10
2018-03-24T02:11:14.530Z,4.00
2018-03-24T02:13:43.637Z,4.00
2018-03-24T02:16:11.896Z,3.90
2018-03-24T02:18:39.452Z,3.90
2018-03-24T02:24:08.791Z,3.90
2018-03-24T02:26:37.039Z,3.90
2018-03-24T02:29:04.550Z,3.80
2018-03-24T02:31:32.044Z,3.80
2018-03-24T02:33:59.542Z,3.80
2018-03-24T02:36:27.804Z,3.80
2018-03-24T02:38:55.307Z,3.70
2018-03-24T02:41:22.789Z,3.80
2018-03-24T02:43:50.298Z,3.80
2018-03-24T02:46:18.552Z,3.90
2018-03-24T02:48:46.065Z,3.90
2018-03-24T02:51:13.649Z,3.90
2018-03-24T02:53:41.272Z,3.90
2018-03-24T02:56:09.525Z,3.90
2018-03-24T02:58:37.018Z,3.80
2018-03-24T03:01:04.505Z,3.90
2018-03-24T03:03:32.000Z,3.80
2018-03-24T03:05:59.561Z,3.80
2018-03-24T03:08:28.572Z,3.80
2018-03-24T03:10:56.820Z,3.80
2018-03-24T03:13:24.320Z,3.80
2018-03-24T03:15:51.805Z,3.80
2018-03-24T03:18:19.316Z,3.80
2018-03-24T03:20:48.349Z,3.70
2018-03-24T03:23:15.851Z,3.70
2018-03-24T03:25:44.108Z,3.70
2018-03-24T03:28:11.603Z,3.70
2018-03-24T03:30:43.733Z,3.60
2018-03-24T03:33:11.241Z,3.60
2018-03-24T03:35:39.498Z,3.50
2018-03-24T03:38:08.051Z,3.50
2018-03-24T03:40:35.544Z,3.50
2018-03-24T03:43:03.040Z,3.50
2018-03-24T03:45:30.533Z,3.40
2018-03-24T03:47:58.053Z,3.50
2018-03-24T03:50:25.564Z,3.50
2018-03-24T03:52:53.060Z,3.50
2018-03-24T03:55:21.308Z,3.40
2018-03-24T03:57:48.803Z,3.30
2018-03-24T04:00:17.064Z,3.50
2018-03-24T04:02:45.329Z,3.50
2018-03-24T04:05:12.816Z,3.50
2018-03-24T04:07:40.315Z,3.50
2018-03-24T04:10:07.818Z,3.50
2018-03-24T04:12:36.127Z,3.70
2018-03-24T04:15:03.617Z,3.60
2018-03-24T04:17:31.116Z,3.70
2018-03-24T04:19:59.372Z,3.70
2018-03-24T04:22:26.856Z,3.60
2018-03-24T04:24:55.124Z,3.70
2018-03-24T04:27:23.375Z,3.70
2018-03-24T04:29:50.876Z,3.70
2018-03-24T04:32:19.118Z,3.60
2018-03-24T04:34:46.623Z,3.60
2018-03-24T04:37:14.104Z,3.50
2018-03-24T04:39:41.599Z,3.40
2018-03-24T04:42:10.595Z,3.30
2018-03-24T04:44:38.101Z,3.30
2018-03-24T04:47:05.589Z,3.30
2018-03-24T04:49:33.075Z,3.20
2018-03-24T04:52:00.562Z,3.20
2018-03-24T04:54:28.064Z,3.20
2018-03-24T04:56:55.543Z,3.20
2018-03-24T04:59:23.034Z,3.20
2018-03-24T05:01:50.523Z,3.10
2018-03-24T05:04:18.021Z,3.10
2018-03-24T05:06:45.508Z,3.10
2018-03-24T05:09:13.807Z,3.00
2018-03-24T05:11:41.297Z,3.00
2018-03-24T05:14:08.893Z,3.10
2018-03-24T05:16:36.367Z,3.00
2018-03-24T05:19:04.628Z,3.00
2018-03-24T05:21:32.889Z,2.90
2018-03-24T05:24:00.379Z,3.00
2018-03-24T05:26:28.636Z,2.90
2018-03-24T05:28:56.164Z,2.90
2018-03-24T05:31:23.655Z,3.00
2018-03-24T05:33:51.916Z,3.00
2018-03-24T05:36:19.414Z,3.00
2018-03-24T05:38:46.911Z,3.00
2018-03-24T05:41:14.386Z,2.90
2018-03-24T05:43:41.886Z,3.00
2018-03-24T05:46:10.149Z,2.90
2018-03-24T05:48:37.685Z,2.90
2018-03-24T05:51:05.200Z,2.90
2018-03-24T05:53:33.468Z,2.90
2018-03-24T05:56:00.959Z,2.90
2018-03-24T05:58:28.455Z,3.00
2018-03-24T06:00:55.939Z,3.00
2018-03-24T06:03:24.205Z,3.10
2018-03-24T06:05:52.466Z,3.10
2018-03-24T06:08:19.967Z,3.00
2018-03-24T06:10:47.456Z,3.10
2018-03-24T06:13:14.956Z,3.10
2018-03-24T06:15:43.208Z,3.20
2018-03-24T06:18:10.726Z,3.20
2018-03-24T06:20:38.271Z,3.20
2018-03-24T06:23:05.847Z,3.30
2018-03-24T06:25:33.340Z,3.40
2018-03-24T06:28:00.872Z,3.40
2018-03-24T06:30:30.819Z,3.40
2018-03-24T06:32:58.315Z,3.40
2018-03-24T06:35:26.579Z,3.50
2018-03-24T06:37:54.826Z,3.60
2018-03-24T06:40:22.354Z,3.50
2018-03-24T06:42:49.825Z,3.60
2018-03-24T06:45:17.333Z,3.50
2018-03-24T06:47:45.571Z,3.50
2018-03-24T06:50:13.067Z,3.50
2018-03-24T06:52:41.315Z,3.60
2018-03-24T06:55:08.829Z,3.60
2018-03-24T06:57:36.309Z,3.70
2018-03-24T07:00:03.916Z,3.70
2018-03-24T07:02:31.428Z,3.80
2018-03-24T07:04:58.927Z,3.80
2018-03-24T07:07:26.413Z,3.90
2018-03-24T07:09:54.713Z,4.10
2018-03-24T07:12:22.204Z,4.10
2018-03-24T07:14:49.716Z,4.20
2018-03-24T07:17:17.204Z,4.20
2018-03-24T07:19:44.727Z,4.30
2018-03-24T07:22:12.979Z,4.50
2018-03-24T07:24:40.499Z,4.50
2018-03-24T07:27:07.983Z,4.60
2018-03-24T07:29:35.499Z,4.70
2018-03-24T07:32:03.002Z,4.70
2018-03-24T07:34:30.499Z,4.90
2018-03-24T07:36:58.016Z,5.00
2018-03-24T07:39:25.557Z,5.10
2018-03-24T07:41:53.038Z,5.20
2018-03-24T07:44:20.578Z,5.30
2018-03-24T07:46:48.096Z,5.50
2018-03-24T07:49:16.371Z,5.80
2018-03-24T07:51:43.859Z,5.70
2018-03-24T07:54:11.364Z,5.90
2018-03-24T07:56:38.847Z,5.90
2018-03-24T07:59:06.349Z,6.00
2018-03-24T08:01:33.843Z,6.00
2018-03-24T08:04:01.396Z,6.10
2018-03-24T08:06:28.900Z,6.20
2018-03-24T08:08:56.476Z,6.40
2018-03-24T08:11:24.045Z,6.50
2018-03-24T08:13:51.535Z,6.70
2018-03-24T08:16:19.063Z,6.80
2018-03-24T08:18:46.586Z,6.90
2018-03-24T08:21:14.899Z,7.20
2018-03-24T08:23:42.414Z,7.20
2018-03-24T08:26:10.775Z,7.40
2018-03-24T08:28:38.348Z,7.30
2018-03-24T08:31:05.961Z,7.50
2018-03-24T08:33:33.500Z,7.50
2018-03-24T08:36:01.080Z,7.60
2018-03-24T08:38:28.644Z,7.60
2018-03-24T08:40:56.245Z,7.70
2018-03-24T08:43:23.708Z,7.80
2018-03-24T08:45:51.193Z,7.80
2018-03-24T08:48:18.684Z,7.90
2018-03-24T08:50:46.188Z,7.90
2018-03-24T08:53:15.540Z,8.10
2018-03-24T08:55:43.203Z,8.10
2018-03-24T08:58:10.663Z,8.20
2018-03-24T09:00:38.133Z,8.30
2018-03-24T09:03:05.611Z,8.50
2018-03-24T09:05:33.200Z,8.60
2018-03-24T09:08:01.575Z,8.70
2018-03-24T09:10:29.043Z,8.70
2018-03-24T09:12:56.533Z,8.80
2018-03-24T09:16:44.291Z,8.80
2018-03-24T09:19:11.775Z,9.00
2018-03-24T09:21:39.235Z,9.30
2018-03-24T09:24:06.715Z,9.40
2018-03-24T09:26:34.251Z,9.60
2018-03-24T09:29:01.836Z,9.70
2018-03-24T09:31:29.288Z,9.90
2018-03-24T09:33:56.816Z,9.90
2018-03-24T09:36:24.307Z,10.00
2018-03-24T09:38:51.802Z,10.20
2018-03-24T09:41:19.263Z,10.40
2018-03-24T09:43:46.742Z,10.60
2018-03-24T09:46:14.224Z,10.80
2018-03-24T09:48:41.684Z,10.90
2018-03-24T09:51:09.155Z,11.20
2018-03-24T09:53:36.843Z,11.50
2018-03-24T09:56:05.087Z,12.80
2018-03-24T09:58:32.554Z,12.70
2018-03-24T10:01:00.041Z,13.50
2018-03-24T10:03:27.576Z,13.80
2018-03-24T10:05:55.046Z,14.20
2018-03-24T10:08:23.280Z,14.60
2018-03-24T10:10:50.771Z,14.50
2018-03-24T10:13:18.244Z,14.60
2018-03-24T10:15:46.490Z,14.50
2018-03-24T10:18:13.946Z,14.50
2018-03-24T10:23:44.229Z,14.70
2018-03-24T10:26:11.729Z,14.20
2018-03-24T10:28:39.200Z,13.80
2018-03-24T10:31:06.721Z,14.00
2018-03-24T10:33:34.196Z,14.50
2018-03-24T10:36:01.673Z,14.90
2018-03-24T10:38:29.203Z,15.10
2018-03-24T10:40:57.286Z,15.20
2018-03-24T10:43:44.569Z,15.60
2018-03-24T10:46:12.831Z,15.90
2018-03-24T10:48:40.367Z,15.80
2018-03-24T10:51:07.851Z,16.10
2018-03-24T10:53:35.317Z,16.50
2018-03-24T10:56:02.800Z,16.60
2018-03-24T10:58:31.063Z,15.30
2018-03-24T11:01:03.188Z,14.70
2018-03-24T11:03:30.727Z,14.70
2018-03-24T11:05:59.032Z,14.80
2018-03-24T11:08:26.497Z,14.70
2018-03-24T11:10:53.963Z,14.60
2018-03-24T11:13:21.426Z,14.70
2018-03-24T11:15:48.984Z,15.50
2018-03-24T11:18:16.448Z,16.00
2018-03-24T11:20:43.920Z,16.20
2018-03-24T11:23:12.160Z,14.80
2018-03-24T11:25:39.656Z,14.80
2018-03-24T11:28:07.119Z,14.10
2018-03-24T11:30:35.355Z,13.50
2018-03-24T11:33:02.877Z,13.40
2018-03-24T11:35:31.963Z,12.90
2018-03-24T11:37:59.425Z,12.90
2018-03-24T11:40:28.279Z,12.90
2018-03-24T11:42:56.379Z,12.80
2018-03-24T11:45:24.627Z,12.70
2018-03-24T11:47:53.633Z,12.80
2018-03-24T11:50:21.093Z,12.80
2018-03-24T11:52:49.328Z,13.30
2018-03-24T11:55:16.791Z,13.30
2018-03-24T11:57:44.413Z,13.30
2018-03-24T12:00:12.736Z,13.40
2018-03-24T12:02:40.200Z,13.60
2018-03-24T12:05:07.663Z,13.40
2018-03-24T12:07:35.144Z,13.40
2018-03-24T12:10:03.380Z,13.20
2018-03-24T12:12:30.839Z,13.20
2018-03-24T12:14:58.308Z,12.80
2018-03-24T12:17:25.787Z,12.40
2018-03-24T12:19:53.267Z,12.20
2018-03-24T12:22:21.515Z,11.50
2018-03-24T12:24:48.987Z,11.50
2018-03-24T12:27:17.282Z,12.50
2018-03-24T12:29:44.799Z,12.40
2018-03-24T12:32:12.295Z,13.20
2018-03-24T12:34:40.520Z,13.60
2018-03-24T12:37:08.104Z,13.60
2018-03-24T12:39:35.560Z,14.00
2018-03-24T12:42:03.035Z,14.40
2018-03-24T12:44:30.513Z,14.60
2018-03-24T12:46:58.000Z,14.10
2018-03-24T12:49:25.459Z,13.50
2018-03-24T12:51:52.942Z,13.00
2018-03-24T12:54:20.418Z,12.60
2018-03-24T12:56:47.904Z,12.30
2018-03-24T12:59:16.131Z,11.90
2018-03-24T13:01:43.631Z,11.90
2018-03-24T13:04:11.875Z,12.40
2018-03-24T13:06:42.148Z,12.90
2018-03-24T13:09:09.708Z,12.90
2018-03-24T13:11:38.183Z,13.00
2018-03-24T13:14:05.645Z,12.90
2018-03-24T13:16:33.111Z,12.70
2018-03-24T13:19:00.594Z,12.40
2018-03-24T13:21:28.062Z,12.20
2018-03-24T13:23:55.534Z,12.10
2018-03-24T13:26:23.007Z,12.10
2018-03-24T13:28:50.479Z,12.00
2018-03-24T13:31:18.774Z,12.00
2018-03-24T13:33:46.276Z,11.90
2018-03-24T13:36:13.779Z,11.90
2018-03-24T13:38:41.244Z,11.80
2018-03-24T13:41:09.627Z,11.80
2018-03-24T13:43:37.850Z,11.80
2018-03-24T13:46:06.380Z,11.80
2018-03-24T13:48:33.852Z,11.80
2018-03-24T13:51:01.403Z,11.90
2018-03-24T13:53:29.826Z,12.20
2018-03-24T13:55:57.296Z,12.20
2018-03-24T13:58:24.854Z,12.20
2018-03-24T14:00:52.325Z,12.10
2018-03-24T14:03:19.974Z,12.00
2018-03-24T14:05:47.442Z,11.80
2018-03-24T14:08:14.915Z,11.70
2018-03-24T14:10:42.391Z,11.60
2018-03-24T14:13:10.734Z,11.80
2018-03-24T14:15:40.012Z,11.70
2018-03-24T14:18:07.488Z,11.70
2018-03-24T14:20:34.955Z,11.70
2018-03-24T14:23:02.484Z,11.70
2018-03-24T14:25:30.033Z,11.70
2018-03-24T14:27:57.504Z,11.70
2018-03-24T14:30:24.967Z,11.60
2018-03-24T14:32:52.436Z,11.60
2018-03-24T14:35:20.429Z,11.50
2018-03-24T14:37:47.946Z,11.60
2018-03-24T14:40:15.351Z,11.50
2018-03-24T14:42:43.918Z,11.50
2018-03-24T14:45:11.383Z,11.60
2018-03-24T14:47:39.885Z,11.70
2018-03-24T14:50:07.343Z,11.90
2018-03-24T14:52:35.619Z,12.00
2018-03-24T14:55:03.092Z,12.00
2018-03-24T14:57:31.347Z,11.90
2018-03-24T14:59:58.829Z,11.90
2018-03-24T15:02:27.061Z,11.70
2018-03-24T15:04:54.541Z,11.60
2018-03-24T15:07:22.006Z,11.50
2018-03-24T15:09:50.399Z,11.20
2018-03-24T15:12:17.956Z,11.20
2018-03-24T15:14:46.939Z,11.00
2018-03-24T15:17:14.472Z,11.00
2018-03-24T15:19:41.922Z,10.90
2018-03-24T15:22:09.454Z,10.80
2018-03-24T15:24:36.924Z,10.80
2018-03-24T15:27:04.395Z,10.70
2018-03-24T15:29:43.648Z,10.70
2018-03-24T15:32:23.187Z,10.70
2018-03-24T15:35:02.677Z,10.80
2018-03-24T15:37:30.987Z,11.00
2018-03-24T15:39:58.480Z,11.00
2018-03-24T15:42:25.944Z,11.10
2018-03-24T15:44:54.234Z,11.20
2018-03-24T15:47:22.490Z,11.30
2018-03-24T15:49:50.044Z,11.20
2018-03-24T15:52:18.567Z,11.30
2018-03-24T15:54:46.019Z,11.30
2018-03-24T15:57:13.493Z,11.40
2018-03-24T15:59:41.099Z,11.40
2018-03-24T16:02:08.616Z,11.50
2018-03-24T16:04:36.102Z,11.50
2018-03-24T16:07:03.574Z,11.40
2018-03-24T16:09:31.084Z,11.40
2018-03-24T16:11:59.324Z,11.40
2018-03-24T16:14:26.825Z,11.40
2018-03-24T16:16:54.312Z,11.30
2018-03-24T16:19:21.782Z,11.20
2018-03-24T16:21:49.251Z,11.10
2018-03-24T16:24:16.835Z,11.00
2018-03-24T16:26:45.074Z,10.90
2018-03-24T16:29:12.584Z,10.90
2018-03-24T16:31:40.143Z,10.80
2018-03-24T16:34:07.628Z,10.60
2018-03-24T16:36:35.086Z,10.60
2018-03-24T16:39:02.559Z,10.50
2018-03-24T16:41:30.062Z,10.40
2018-03-24T16:43:57.614Z,10.30
2018-03-24T16:46:26.102Z,10.20
2018-03-24T16:48:54.390Z,10.10
2018-03-24T16:51:22.721Z,10.00
2018-03-24T16:53:50.352Z,10.00
2018-03-24T16:56:17.885Z,9.90
2018-03-24T16:58:46.107Z,9.80
2018-03-24T17:01:13.563Z,9.80
2018-03-24T17:03:41.417Z,9.70
2018-03-24T17:06:08.867Z,9.70
2018-03-24T17:08:36.340Z,9.70
2018-03-24T17:11:03.782Z,9.70
2018-03-24T17:13:31.477Z,9.60
2018-03-24T17:15:58.999Z,9.60
2018-03-24T17:18:26.468Z,9.50
2018-03-24T17:20:53.918Z,9.40
2018-03-24T17:23:21.543Z,9.40
2018-03-24T17:25:49.035Z,9.30
2018-03-24T17:28:16.520Z,9.20
2018-03-24T17:30:43.983Z,9.10
2018-03-24T17:33:11.836Z,9.00
2018-03-24T17:35:39.223Z,8.90
2018-03-24T17:38:06.698Z,8.80
2018-03-24T17:40:34.168Z,8.70
2018-03-24T17:43:02.442Z,8.50
2018-03-24T17:45:29.908Z,8.50
2018-03-24T17:47:58.140Z,8.40
2018-03-24T17:50:25.606Z,8.40
2018-03-24T17:52:53.068Z,8.30
2018-03-24T17:55:20.554Z,8.20
2018-03-24T17:57:48.822Z,8.10
2018-03-24T18:00:16.294Z,8.10
2018-03-24T18:02:44.538Z,8.00
2018-03-24T18:05:12.160Z,8.00
2018-03-24T18:07:39.648Z,7.90
2018-03-24T18:10:07.162Z,7.90
2018-03-24T18:12:35.368Z,7.80
2018-03-24T18:15:02.877Z,7.80
2018-03-24T18:17:30.367Z,7.80
2018-03-24T18:19:57.824Z,7.70
2018-03-24T18:22:25.372Z,7.70
2018-03-24T18:24:52.919Z,7.60
2018-03-24T18:27:21.153Z,7.60
2018-03-24T18:29:48.634Z,7.60
2018-03-24T18:32:16.124Z,7.50
2018-03-24T18:34:44.365Z,7.40
2018-03-24T18:37:12.088Z,7.40
2018-03-24T18:39:39.732Z,7.40
2018-03-24T18:42:07.343Z,7.40
2018-03-24T18:44:34.815Z,7.40
2018-03-24T18:47:02.295Z,7.40
2018-03-24T18:49:30.578Z,7.30
2018-03-24T18:51:58.058Z,7.30
2018-03-24T18:54:25.537Z,7.30
2018-03-24T18:56:53.183Z,7.30
2018-03-24T18:59:20.652Z,7.30
2018-03-24T19:01:48.112Z,7.30
2018-03-24T19:04:15.606Z,7.30
2018-03-24T19:06:43.064Z,7.20
2018-03-24T19:09:11.287Z,7.20
2018-03-24T19:11:38.768Z,7.10
2018-03-24T19:14:06.335Z,7.10
2018-03-24T19:16:33.881Z,7.10
2018-03-24T19:19:01.344Z,7.10
2018-03-24T19:21:28.825Z,7.00
2018-03-24T19:23:56.388Z,7.00
2018-03-24T19:26:23.945Z,7.00
2018-03-24T19:28:52.315Z,6.90
2018-03-24T19:31:19.796Z,6.90
2018-03-24T19:33:48.767Z,6.80
2018-03-24T19:36:16.246Z,6.80
2018-03-24T19:38:45.242Z,6.70
2018-03-24T19:41:12.725Z,6.70
2018-03-24T19:43:40.327Z,6.70
2018-03-24T19:46:08.848Z,6.70
2018-03-24T19:48:36.326Z,6.70
2018-03-24T19:51:03.858Z,6.70
2018-03-24T19:53:31.463Z,6.60
2018-03-24T19:55:58.956Z,6.60
2018-03-24T19:58:26.483Z,6.50
2018-03-24T20:00:53.958Z,6.50
2018-03-24T20:03:21.459Z,6.40
2018-03-24T20:05:48.981Z,6.40
2018-03-24T20:08:16.452Z,6.40
2018-03-24T20:10:43.978Z,6.40
2018-03-24T20:13:12.266Z,6.30
2018-03-24T20:15:39.808Z,6.30
2018-03-24T20:18:08.060Z,6.30
2018-03-24T20:20:35.515Z,6.30
2018-03-24T20:23:03.015Z,6.30
2018-03-24T20:25:30.484Z,6.30
2018-03-24T20:27:57.972Z,6.30
2018-03-24T20:30:25.431Z,6.20
2018-03-24T20:32:52.908Z,6.20
2018-03-24T20:35:20.383Z,6.20
2018-03-24T20:37:48.677Z,6.10
2018-03-24T20:40:17.017Z,6.10
2018-03-24T20:42:44.567Z,6.10
2018-03-24T20:45:12.049Z,6.10
2018-03-24T20:47:39.552Z,6.10
2018-03-24T20:50:06.980Z,6.00
2018-03-24T20:52:35.444Z,6.00
2018-03-24T20:55:03.708Z,6.00
2018-03-24T20:57:31.195Z,5.90
2018-03-24T20:59:59.432Z,5.90
2018-03-24T21:02:26.983Z,5.90
2018-03-24T21:04:54.447Z,5.90
2018-03-24T21:07:21.955Z,5.80
2018-03-24T21:09:50.195Z,5.70
2018-03-24T21:12:17.736Z,5.70
2018-03-24T21:14:45.208Z,5.70
2018-03-24T21:17:12.667Z,5.70
2018-03-24T21:19:40.148Z,5.80
2018-03-24T21:22:07.622Z,5.70
2018-03-24T21:24:35.873Z,5.60
2018-03-24T21:27:03.368Z,5.60
2018-03-24T21:29:30.847Z,5.60
2018-03-24T21:31:58.308Z,5.60
2018-03-24T21:34:25.788Z,5.60
2018-03-24T21:36:53.280Z,5.60
2018-03-24T21:39:20.764Z,5.50
2018-03-24T21:41:48.243Z,5.60
2018-03-24T21:44:15.713Z,5.50
2018-03-24T21:46:43.244Z,5.50
2018-03-24T21:49:10.708Z,5.50
2018-03-24T21:51:38.243Z,5.50
2018-03-24T21:54:06.489Z,5.60
2018-03-24T21:56:33.998Z,5.50
2018-03-24T21:59:01.451Z,5.50
2018-03-24T22:01:28.952Z,5.50
2018-03-24T22:03:56.524Z,5.40
2018-03-24T22:06:24.075Z,5.40
2018-03-24T22:08:51.528Z,5.30
2018-03-24T22:11:19.038Z,5.30
2018-03-24T22:13:46.533Z,5.30
2018-03-24T22:16:14.179Z,5.30
2018-03-24T22:18:41.644Z,5.30
2018-03-24T22:21:09.139Z,5.20
2018-03-24T22:23:36.636Z,5.20
2018-03-24T22:26:04.891Z,5.10
2018-03-24T22:28:32.352Z,5.10
2018-03-24T22:30:59.835Z,5.10
2018-03-24T22:33:27.331Z,5.10
2018-03-24T22:35:54.831Z,5.00
2018-03-24T22:38:22.320Z,5.00
2018-03-24T22:40:49.797Z,5.00
2018-03-24T22:43:17.283Z,5.00
2018-03-24T22:45:44.763Z,5.00
2018-03-24T22:48:13.024Z,5.00
2018-03-24T22:50:40.513Z,5.00
2018-03-24T22:53:08.761Z,5.00
2018-03-24T22:55:37.037Z,5.00
2018-03-24T22:58:04.529Z,5.00
2018-03-24T23:00:32.091Z,5.00
2018-03-24T23:03:00.372Z,4.90
2018-03-24T23:05:27.952Z,4.90
2018-03-24T23:07:55.440Z,4.90
2018-03-24T23:10:22.966Z,4.90
2018-03-24T23:12:50.461Z,4.80
2018-03-24T23:15:17.972Z,4.80
2018-03-24T23:17:45.439Z,4.80
2018-03-24T23:20:12.948Z,4.80
2018-03-24T23:22:41.216Z,4.80
2018-03-24T23:25:09.542Z,4.80
2018-03-24T23:27:37.761Z,4.70
2018-03-24T23:30:06.427Z,4.70
2018-03-24T23:32:33.917Z,4.70
2018-03-24T23:35:01.494Z,4.70
2018-03-24T23:37:29.035Z,4.70
2018-03-24T23:40:13.917Z,4.60
2018-03-24T23:42:42.175Z,4.60
2018-03-24T23:45:09.709Z,4.60
2018-03-24T23:47:37.236Z,4.60
2018-03-24T23:50:04.735Z,4.50
2018-03-24T23:52:32.245Z,4.60
2018-03-24T23:54:59.725Z,4.50
2018-03-24T23:57:27.340Z,4.50
2018-03-24T23:59:54.839Z,4.50
